Time;durP1;ratioP1;P1;durP2;ratioP2;P2;SDS_P1;SDS_P2;PMS_P1;PMS_P2;Temp;Humidity;BMP_temperature;BMP_pressure;BME280_temperature;BME280_humidity;BME280_pressure;Samples;Min_cycle;Max_cycle;Signal;HPM_P1;HPM_P2
2022/03/31 00:01:07;;;;;;;9.33;5.97;;;;;;;11.25;30.45;99016.44;10382216;28;20209;-86
2022/03/31 00:06:09;;;;;;;10.57;6.30;;;;;;;10.67;31.61;99024.50;10399000;28;20609;-86
2022/03/31 00:11:12;;;;;;;9.60;6.20;;;;;;;10.62;32.08;99017.16;10398201;28;20197;-85
2022/03/31 00:16:14;;;;;;;9.23;6.10;;;;;;;10.44;32.29;99024.53;10364317;28;20232;-87
2022/03/31 00:21:17;;;;;;;10.83;6.23;;;;;;;10.61;32.27;99015.53;10364894;28;20209;-87
2022/03/31 00:26:19;;;;;;;10.70;6.80;;;;;;;10.56;31.91;99009.41;10381164;28;20206;-86
2022/03/31 00:31:21;;;;;;;12.10;6.60;;;;;;;10.70;31.33;99001.16;10375294;28;20197;-86
2022/03/31 00:36:24;;;;;;;10.97;6.97;;;;;;;10.67;31.39;99004.72;10362441;28;20788;-86
2022/03/31 00:41:27;;;;;;;10.83;6.93;;;;;;;11.01;31.08;98997.13;10333530;28;20209;-85
2022/03/31 00:46:29;;;;;;;12.43;7.13;;;;;;;10.55;31.84;98997.28;10378995;28;20246;-86
2022/03/31 00:51:31;;;;;;;9.57;6.63;;;;;;;10.30;32.20;99004.53;10395823;28;20540;-87
2022/03/31 00:56:35;;;;;;;12.27;7.57;;;;;;;10.95;30.86;98991.00;10347676;28;20251;-86
2022/03/31 01:01:38;;;;;;;11.73;7.50;;;;;;;10.58;32.33;98992.91;10345342;28;20263;-86
2022/03/31 01:06:44;;;;;;;12.47;8.63;;;;;;;10.54;32.86;98992.03;10362766;28;20201;-85
2022/03/31 01:11:47;;;;;;;15.27;7.97;;;;;;;10.52;32.16;98983.91;10364438;28;20243;-85
2022/03/31 01:16:49;;;;;;;14.10;8.47;;;;;;;10.28;32.72;98970.19;10381399;28;20287;-86
2022/03/31 01:21:51;;;;;;;12.03;8.63;;;;;;;10.54;33.42;98967.41;10386114;28;20228;-86
2022/03/31 01:26:53;;;;;;;14.67;8.83;;;;;;;10.84;32.07;98960.97;10378117;28;20201;-85
2022/03/31 01:31:57;;;;;;;12.53;8.87;;;;;;;10.00;33.58;98962.91;10378362;28;20201;-85
2022/03/31 01:37:00;;;;;;;12.80;8.47;;;;;;;10.17;33.77;98958.75;10362178;28;20697;-85
2022/03/31 01:42:02;;;;;;;13.17;9.10;;;;;;;10.13;33.27;98949.38;10378128;28;20204;-85
2022/03/31 01:47:05;;;;;;;10.83;8.73;;;;;;;10.29;33.89;98957.72;10369136;28;20221;-86
2022/03/31 01:52:07;;;;;;;13.57;9.23;;;;;;;10.57;33.42;98952.50;10361607;28;20598;-86
2022/03/31 01:57:09;;;;;;;15.13;9.40;;;;;;;10.74;33.25;98940.63;10345207;28;20225;-86
2022/03/31 02:02:13;;;;;;;14.93;9.97;;;;;;;10.49;34.10;98939.47;10343909;28;20236;-85
2022/03/31 02:07:15;;;;;;;14.27;10.37;;;;;;;11.00;32.74;98936.13;10338087;28;20500;-85
2022/03/31 02:12:18;;;;;;;15.13;9.87;;;;;;;10.10;34.38;98930.38;10360803;28;20676;-84
2022/03/31 02:17:20;;;;;;;12.67;9.43;;;;;;;10.69;33.62;98924.00;10344716;28;20630;-85
2022/03/31 02:22:23;;;;;;;14.00;9.53;;;;;;;10.72;34.19;98920.44;10322780;28;20248;-85
2022/03/31 02:27:26;;;;;;;14.93;10.73;;;;;;;9.88;35.55;98919.94;10376863;28;20216;-84
2022/03/31 02:32:28;;;;;;;15.40;10.57;;;;;;;10.41;34.53;98912.28;10376507;28;20502;-84
2022/03/31 02:37:30;;;;;;;13.50;11.30;;;;;;;10.75;34.05;98908.34;10360343;28;20514;-84
2022/03/31 02:42:35;;;;;;;14.97;11.07;;;;;;;10.55;34.72;98909.69;10343652;28;20201;-84
2022/03/31 02:47:37;;;;;;;13.20;10.37;;;;;;;10.24;34.72;98898.72;10344489;28;20533;-84
2022/03/31 02:58:03;;;;;;;15.23;10.50;;;;;;;10.45;35.54;98884.91;10376103;28;20267;-84
2022/03/31 03:03:06;;;;;;;16.13;10.80;;;;;;;10.27;35.33;98887.47;10359651;28;20197;-83
2022/03/31 03:08:08;;;;;;;16.13;10.83;;;;;;;10.72;35.11;98886.50;10406351;28;20215;-83
2022/03/31 03:13:11;;;;;;;12.83;9.53;;;;;;;9.87;36.28;98879.59;10343258;28;20236;-83
2022/03/31 03:18:18;;;;;;;16.80;10.97;;;;;;;10.28;36.21;98871.34;10383638;28;20569;-84
2022/03/31 03:23:20;;;;;;;14.83;11.40;;;;;;;10.42;35.96;98865.88;10383865;28;20197;-82
2022/03/31 03:28:22;;;;;;;15.70;12.37;;;;;;;10.48;35.45;98872.06;10382888;28;20582;-83
2022/03/31 03:33:25;;;;;;;21.90;12.97;;;;;;;10.52;36.13;98870.06;10359618;28;20205;-84
2022/03/31 03:38:27;;;;;;;18.37;13.20;;;;;;;10.19;36.24;98874.44;10392811;28;20264;-82
2022/03/31 03:43:31;;;;;;;16.27;12.17;;;;;;;9.85;36.54;98870.69;10377241;28;20208;-81
2022/03/31 03:48:33;;;;;;;16.67;12.63;;;;;;;10.27;36.62;98867.69;10379852;28;20206;-83
2022/03/31 03:53:35;;;;;;;18.87;13.37;;;;;;;10.51;36.53;98866.44;10402970;28;20258;-83
2022/03/31 03:58:38;;;;;;;17.20;12.80;;;;;;;10.14;36.75;98863.47;10396474;28;20229;-83
2022/03/31 04:03:40;;;;;;;17.73;11.43;;;;;;;10.14;37.05;98862.66;10375289;28;20205;-83
2022/03/31 04:08:42;;;;;;;19.47;12.63;;;;;;;10.16;37.16;98852.63;10380139;28;20201;-83
2022/03/31 04:13:46;;;;;;;16.17;12.07;;;;;;;10.34;36.63;98858.53;10371469;28;20224;-83
2022/03/31 04:18:48;;;;;;;20.83;13.23;;;;;;;9.65;38.00;98855.06;10372347;28;20591;-83
2022/03/31 04:23:50;;;;;;;17.00;12.33;;;;;;;10.15;37.16;98855.81;10366011;28;20232;-83
2022/03/31 04:28:53;;;;;;;19.80;12.57;;;;;;;9.28;38.92;98855.63;10379390;28;20243;-83
2022/03/31 04:33:55;;;;;;;18.43;12.67;;;;;;;9.96;37.57;98854.72;10380152;28;20205;-84
2022/03/31 04:38:58;;;;;;;22.00;14.10;;;;;;;9.54;38.76;98848.41;10364771;28;20549;-83
2022/03/31 04:44:01;;;;;;;17.47;12.90;;;;;;;9.54;38.39;98860.50;10379084;28;20334;-83
2022/03/31 04:49:03;;;;;;;18.37;13.43;;;;;;;9.10;39.92;98857.28;10342050;28;20324;-83
2022/03/31 04:54:06;;;;;;;20.33;14.20;;;;;;;9.29;39.57;98851.59;10360494;28;20201;-82
2022/03/31 04:59:08;;;;;;;20.17;14.93;;;;;;;9.97;38.27;98859.19;10357331;28;20205;-83
2022/03/31 05:04:12;;;;;;;20.63;15.17;;;;;;;10.61;37.23;98857.28;10377764;28;20263;-83
2022/03/31 05:09:14;;;;;;;24.83;14.13;;;;;;;9.85;37.98;98853.75;10361217;28;20251;-83
2022/03/31 05:14:16;;;;;;;20.93;14.90;;;;;;;10.01;37.86;98857.25;10361578;28;20256;-82
2022/03/31 05:19:20;;;;;;;22.33;14.90;;;;;;;9.97;37.88;98856.34;10340257;28;20209;-83
2022/03/31 05:24:23;;;;;;;20.53;14.60;;;;;;;9.74;38.61;98852.78;10365949;28;20201;-83
2022/03/31 05:29:25;;;;;;;21.60;16.27;;;;;;;10.01;38.37;98850.78;10379053;28;20726;-83
2022/03/31 05:34:27;;;;;;;23.10;15.70;;;;;;;9.73;38.69;98849.13;10408693;28;20251;-82
2022/03/31 05:39:32;;;;;;;21.50;15.33;;;;;;;9.92;38.06;98853.88;10395514;28;20266;-83
2022/03/31 05:44:34;;;;;;;22.47;15.63;;;;;;;10.05;38.01;98846.81;10400933;28;20204;-84
2022/03/31 05:49:36;;;;;;;23.37;16.17;;;;;;;10.01;38.23;98845.94;10417106;28;20262;-82
2022/03/31 05:54:39;;;;;;;22.27;15.17;;;;;;;9.91;38.26;98845.78;10413046;28;20217;-83
2022/03/31 05:59:42;;;;;;;22.57;15.53;;;;;;;10.18;38.07;98846.59;10416663;28;20200;-84
2022/03/31 06:04:44;;;;;;;24.03;17.20;;;;;;;10.28;37.79;98843.09;10417368;28;20251;-82
2022/03/31 06:09:46;;;;;;;24.40;15.37;;;;;;;10.55;37.18;98849.53;10406851;28;20585;-82
2022/03/31 06:14:48;;;;;;;21.30;15.53;;;;;;;10.23;37.82;98846.25;10415276;28;20228;-82
2022/03/31 06:19:50;;;;;;;24.43;16.57;;;;;;;10.11;38.67;98844.47;10390188;28;20282;-83
2022/03/31 06:24:52;;;;;;;19.47;14.63;;;;;;;9.90;38.09;98856.25;10405526;28;20339;-83
2022/03/31 06:29:55;;;;;;;19.27;13.67;;;;;;;10.03;37.82;98842.75;10381166;28;20294;-82
2022/03/31 06:34:57;;;;;;;21.97;13.63;;;;;;;9.97;37.67;98849.91;10375297;28;20259;-82
2022/03/31 06:39:59;;;;;;;18.67;12.53;;;;;;;10.52;36.66;98853.13;10370910;28;20204;-83
2022/03/31 06:45:02;;;;;;;19.67;12.70;;;;;;;10.38;37.28;98848.88;10387620;28;20272;-83
2022/03/31 06:50:24;;;;;;;18.87;11.93;;;;;;;10.60;36.79;98850.03;10392535;28;20240;-83
2022/03/31 06:55:27;;;;;;;16.27;11.43;;;;;;;9.51;37.94;98854.78;10393669;28;20259;-83
2022/03/31 07:00:29;;;;;;;16.43;11.67;;;;;;;9.77;37.50;98856.84;10405261;28;20257;-83
2022/03/31 07:05:35;;;;;;;14.97;10.50;;;;;;;9.61;38.43;98848.53;10360638;28;20189;-87
2022/03/31 07:10:37;;;;;;;17.13;11.00;;;;;;;9.49;38.28;98852.34;10361197;28;20259;-85
2022/03/31 07:15:39;;;;;;;16.13;10.97;;;;;;;9.86;37.66;98844.09;10353483;28;20225;-87
2022/03/31 07:20:42;;;;;;;13.57;10.27;;;;;;;10.83;36.36;98832.91;10361314;28;20252;-83
2022/03/31 07:25:44;;;;;;;13.27;10.13;;;;;;;9.75;37.57;98848.75;10336485;28;20782;-83
2022/03/31 07:30:47;;;;;;;13.50;9.43;;;;;;;10.24;36.92;98847.88;10396034;28;20204;-83
2022/03/31 07:35:50;;;;;;;13.90;9.33;;;;;;;10.38;36.92;98848.06;10387746;28;20205;-84
2022/03/31 07:40:53;;;;;;;13.77;8.97;;;;;;;10.73;36.69;98851.41;10343613;28;20224;-87
2022/03/31 07:45:55;;;;;;;13.07;9.00;;;;;;;9.80;36.95;98840.00;10372982;28;20204;-86
2022/03/31 07:50:59;;;;;;;14.23;9.43;;;;;;;10.67;36.65;98837.97;10376029;28;20618;-84
2022/03/31 07:56:05;;;;;;;16.00;9.93;;;;;;;10.53;36.85;98832.16;10397697;28;20216;-85
2022/03/31 08:01:07;;;;;;;13.97;10.00;;;;;;;10.68;36.72;98826.28;10365884;28;20209;-87
2022/03/31 08:06:10;;;;;;;18.17;11.00;;;;;;;10.73;36.77;98820.31;10365358;28;20546;-85
2022/03/31 08:11:12;;;;;;;15.87;10.00;;;;;;;11.03;36.39;98819.38;10366221;28;20210;-85
2022/03/31 08:16:14;;;;;;;14.90;9.83;;;;;;;9.41;38.68;98828.03;10387843;28;20550;-86
2022/03/31 08:21:17;;;;;;;13.73;8.30;;;;;;;10.06;37.37;98820.22;10377195;28;20244;-85
2022/03/31 08:26:19;;;;;;;13.30;9.33;;;;;;;10.51;36.79;98824.06;10372596;28;20557;-87
2022/03/31 08:31:21;;;;;;;13.17;9.13;;;;;;;10.98;35.71;98825.41;10372380;28;20193;-86
2022/03/31 08:36:24;;;;;;;15.57;10.33;;;;;;;10.91;36.05;98831.78;10374204;28;20221;-87
2022/03/31 08:41:28;;;;;;;16.37;10.90;;;;;;;10.53;37.65;98826.50;10352520;28;20209;-87
2022/03/31 08:46:33;;;;;;;20.90;11.27;;;;;;;10.60;37.59;98832.25;10365335;28;20240;-88
2022/03/31 08:51:35;;;;;;;17.57;11.23;;;;;;;11.04;37.09;98829.50;10364794;28;20271;-87
2022/03/31 08:56:38;;;;;;;20.43;11.90;;;;;;;10.31;37.68;98831.03;10348300;28;20565;-87
2022/03/31 09:02:00;;;;;;;18.07;11.70;;;;;;;11.11;37.31;98829.59;10353777;28;20205;-87
2022/03/31 09:07:08;;;;;;;17.53;12.23;;;;;;;12.26;35.06;98829.31;10364117;28;20201;-86
2022/03/31 09:12:10;;;;;;;18.43;11.80;;;;;;;11.38;35.67;98835.94;10362666;28;20205;-88
2022/03/31 09:17:25;;;;;;;19.73;12.60;;;;;;;10.97;36.43;98830.25;10365812;28;20561;-86
2022/03/31 09:22:27;;;;;;;18.63;12.27;;;;;;;11.35;36.59;98834.69;10379874;28;20201;-87
2022/03/31 09:27:30;;;;;;;15.03;11.93;;;;;;;11.85;35.44;98829.44;10360876;28;20574;-86
2022/03/31 09:32:32;;;;;;;17.03;12.30;;;;;;;11.38;35.30;98831.09;10365531;28;20263;-87
2022/03/31 09:37:34;;;;;;;19.27;13.20;;;;;;;10.70;36.33;98831.56;10346312;28;20233;-88
2022/03/31 09:42:36;;;;;;;17.40;12.27;;;;;;;10.89;35.53;98827.72;10362250;28;20224;-84
2022/03/31 09:47:44;;;;;;;20.80;12.90;;;;;;;11.55;35.14;98828.78;10362387;28;20189;-84
2022/03/31 09:52:47;;;;;;;21.30;12.60;;;;;;;11.70;34.15;98827.69;10345799;28;20197;-84
2022/03/31 09:57:49;;;;;;;21.80;14.50;;;;;;;11.12;35.32;98825.56;10378969;28;20267;-84
2022/03/31 10:02:51;;;;;;;20.20;13.17;;;;;;;11.38;34.04;98835.94;10378380;28;20248;-84
2022/03/31 10:08:12;;;;;;;18.97;13.23;;;;;;;11.15;34.08;98830.41;10377286;28;20190;-84
2022/03/31 10:13:24;;;;;;;25.17;14.57;;;;;;;11.95;33.45;98811.69;10346581;28;20240;-86
2022/03/31 10:18:26;;;;;;;20.80;14.70;;;;;;;11.87;32.79;98815.69;10411561;28;20282;-86
2022/03/31 10:28:58;;;;;;;21.23;14.57;;;;;;;11.76;33.41;98797.84;10358721;28;20205;-85
2022/03/31 10:34:00;;;;;;;22.83;15.10;;;;;;;12.00;31.98;98808.50;10360321;28;20201;-85
2022/03/31 10:39:06;;;;;;;20.90;14.20;;;;;;;11.40;32.63;98802.38;10359856;28;20229;-85
2022/03/31 10:44:12;;;;;;;18.60;14.23;;;;;;;10.97;32.80;98801.16;10341074;28;20279;-85
2022/03/31 10:49:19;;;;;;;19.47;13.67;;;;;;;12.48;31.37;98778.00;10375455;28;20200;-84
2022/03/31 10:54:27;;;;;;;19.30;14.73;;;;;;;11.75;32.54;98776.38;10347054;28;20213;-85
2022/03/31 10:59:29;;;;;;;19.17;14.23;;;;;;;12.28;31.17;98778.75;10374485;28;20253;-85
2022/03/31 11:04:45;;;;;;;19.07;14.23;;;;;;;12.76;31.18;98771.63;10378615;28;20271;-84
2022/03/31 11:10:09;;;;;;;17.60;14.13;;;;;;;12.76;30.76;98771.63;10364944;28;20212;-86
2022/03/31 11:15:13;;;;;;;21.53;14.17;;;;;;;12.09;30.62;98766.50;10348995;28;20279;-85
2022/03/31 11:20:21;;;;;;;18.63;14.43;;;;;;;12.92;31.64;98773.31;10374433;28;20530;-86
2022/03/31 11:25:23;;;;;;;23.27;14.70;;;;;;;11.80;32.53;98764.66;10345858;28;20198;-86
2022/03/31 11:30:32;;;;;;;17.90;13.13;;;;;;;12.54;30.56;98750.09;10365434;28;20260;-87
2022/03/31 11:35:35;;;;;;;19.10;13.80;;;;;;;12.05;31.84;98748.63;10360002;28;20625;-87
2022/03/31 11:40:44;;;;;;;17.37;12.80;;;;;;;12.53;31.67;98748.47;10349184;28;20229;-87
2022/03/31 11:45:48;;;;;;;17.60;12.87;;;;;;;12.62;31.03;98746.06;10348620;28;20236;-87
2022/03/31 11:50:59;;;;;;;15.20;12.10;;;;;;;12.21;30.52;98748.34;10361515;28;20197;-84
2022/03/31 11:56:16;;;;;;;16.23;12.17;;;;;;;12.65;30.39;98736.75;10348020;28;20256;-83
2022/03/31 12:01:21;;;;;;;16.50;13.30;;;;;;;11.12;33.51;98750.00;10359272;28;20610;-85
2022/03/31 12:06:24;;;;;;;18.77;13.67;;;;;;;12.93;31.96;98740.88;10363595;28;20209;-84
2022/03/31 12:11:29;;;;;;;18.93;14.70;;;;;;;12.29;32.05;98740.69;10378771;28;20267;-84
2022/03/31 12:16:43;;;;;;;18.97;13.73;;;;;;;11.65;32.23;98743.94;10361830;28;20573;-84
2022/03/31 12:21:51;;;;;;;20.10;14.50;;;;;;;12.28;32.34;98747.56;10343418;28;20201;-83
2022/03/31 12:26:55;;;;;;;20.33;14.90;;;;;;;12.78;31.57;98740.03;10361812;28;20194;-83
2022/03/31 12:32:07;;;;;;;20.10;13.87;;;;;;;11.23;33.45;98752.91;10378978;28;20201;-83
2022/03/31 12:37:10;;;;;;;15.53;13.10;;;;;;;11.56;32.73;98745.50;10375613;28;20774;-83
2022/03/31 12:42:14;;;;;;;22.40;15.10;;;;;;;11.58;34.57;98740.28;10377406;28;20213;-83
2022/03/31 12:47:22;;;;;;;21.87;15.00;;;;;;;10.70;33.94;98755.25;10362046;28;20201;-83
2022/03/31 12:52:24;;;;;;;18.13;14.07;;;;;;;10.81;34.59;98761.00;10375869;28;20209;-82
2022/03/31 12:57:31;;;;;;;23.27;14.80;;;;;;;11.62;33.23;98756.09;10361264;28;21538;-83
2022/03/31 13:02:35;;;;;;;22.60;15.83;;;;;;;11.50;33.80;98747.91;10359976;28;20259;-84
2022/03/31 13:07:39;;;;;;;23.77;16.53;;;;;;;10.32;35.33;98753.56;10358006;28;20197;-82
2022/03/31 13:12:41;;;;;;;26.67;18.87;;;;;;;11.39;34.29;98750.63;10371105;28;20233;-84
2022/03/31 13:17:45;;;;;;;27.60;18.87;;;;;;;11.30;35.23;98753.00;10363895;28;20456;-83
2022/03/31 13:22:53;;;;;;;29.33;19.47;;;;;;;11.85;34.54;98733.16;10357867;28;20637;-82
2022/03/31 13:27:55;;;;;;;32.27;19.97;;;;;;;11.87;34.12;98727.91;10347286;28;20265;-84
2022/03/31 13:32:59;;;;;;;31.23;21.47;;;;;;;11.60;34.07;98735.84;10358236;28;20288;-81
2022/03/31 13:38:01;;;;;;;29.87;19.63;;;;;;;12.44;33.49;98725.34;10352941;28;20287;-82
2022/03/31 13:43:06;;;;;;;29.60;20.87;;;;;;;11.89;34.55;98722.69;10339958;28;20241;-81
2022/03/31 13:48:08;;;;;;;29.60;19.03;;;;;;;10.79;35.44;98728.28;10335522;28;20247;-81
2022/03/31 14:03:56;;;;;;;22.40;13.80;;;;;;;10.15;34.67;98745.69;10363199;28;20610;-84
2022/03/31 14:09:05;;;;;;;24.33;16.13;;;;;;;10.88;34.64;98741.28;10353403;28;20243;-81
2022/03/31 14:14:12;;;;;;;23.27;15.50;;;;;;;12.33;33.44;98727.31;10336848;28;20295;-81
2022/03/31 14:19:16;;;;;;;21.70;13.80;;;;;;;11.47;34.48;98735.34;10331638;28;20758;-82
2022/03/31 14:24:20;;;;;;;23.40;15.50;;;;;;;10.14;36.41;98735.59;10362332;28;20233;-83
2022/03/31 14:29:23;;;;;;;24.83;16.70;;;;;;;11.26;35.24;98725.88;10306997;28;20201;-84
2022/03/31 14:34:25;;;;;;;26.90;17.27;;;;;;;11.91;33.86;98714.56;10367465;28;20205;-83
2022/03/31 14:39:28;;;;;;;26.47;17.63;;;;;;;11.86;33.43;98723.47;10338758;28;20271;-81
2022/03/31 14:44:31;;;;;;;30.97;19.70;;;;;;;11.89;35.25;98710.53;10354690;28;20680;-82
2022/03/31 14:49:33;;;;;;;30.70;20.57;;;;;;;11.43;35.47;98722.38;10354905;28;20547;-83
2022/03/31 14:54:36;;;;;;;31.23;19.63;;;;;;;12.03;34.25;98707.78;10344963;28;20302;-84
2022/03/31 14:59:39;;;;;;;34.53;21.20;;;;;;;11.69;34.14;98710.81;10363987;28;20260;-82
2022/03/31 15:04:42;;;;;;;31.63;20.30;;;;;;;10.74;36.98;98720.13;10342253;28;20608;-81
2022/03/31 15:15:05;;;;;;;33.07;20.83;;;;;;;11.99;34.75;98704.91;10354046;28;20310;-86
2022/03/31 15:20:08;;;;;;;29.67;19.50;;;;;;;10.64;37.61;98726.50;10358348;28;20256;-82
2022/03/31 15:25:10;;;;;;;26.33;18.20;;;;;;;10.92;36.25;98722.34;10369951;28;20590;-81
2022/03/31 15:30:13;;;;;;;26.83;18.90;;;;;;;11.65;36.05;98712.81;10370183;28;20598;-81
2022/03/31 15:35:18;;;;;;;25.30;17.20;;;;;;;11.46;36.12;98718.75;10369757;28;20225;-84
2022/03/31 15:40:20;;;;;;;21.47;15.80;;;;;;;11.08;35.75;98720.88;10350744;28;20326;-81
2022/03/31 15:45:25;;;;;;;21.03;16.17;;;;;;;11.25;35.36;98719.41;10350423;28;20605;-82
2022/03/31 15:50:28;;;;;;;20.77;16.40;;;;;;;11.70;34.68;98723.78;10370631;28;20261;-86
2022/03/31 15:55:31;;;;;;;21.43;16.60;;;;;;;11.57;36.12;98728.13;10352694;28;21021;-83
2022/03/31 16:00:33;;;;;;;18.83;14.43;;;;;;;10.52;35.63;98728.78;10350841;28;20257;-85
2022/03/31 16:05:36;;;;;;;17.73;13.57;;;;;;;11.27;35.25;98733.94;10350712;28;20229;-84
2022/03/31 16:10:42;;;;;;;18.53;13.97;;;;;;;10.37;36.69;98744.75;10366585;28;20237;-83
2022/03/31 16:15:44;;;;;;;18.33;13.83;;;;;;;10.91;36.25;98748.97;10367719;28;20270;-85
2022/03/31 16:20:47;;;;;;;16.83;14.00;;;;;;;9.84;37.84;98750.50;10359176;28;20310;-83
2022/03/31 16:25:49;;;;;;;18.60;14.47;;;;;;;10.82;35.85;98759.81;10357143;28;20614;-82
2022/03/31 16:30:53;;;;;;;20.20;15.23;;;;;;;10.47;37.02;98758.22;10371392;28;20233;-86
2022/03/31 16:35:56;;;;;;;20.13;16.53;;;;;;;10.98;36.81;98751.88;10371928;28;20241;-87
2022/03/31 16:40:59;;;;;;;22.23;15.93;;;;;;;10.90;35.91;98762.31;10355448;28;20252;-86
2022/03/31 16:46:07;;;;;;;18.10;14.70;;;;;;;11.49;35.17;98752.75;10366072;28;20209;-87
2022/03/31 16:51:10;;;;;;;22.63;16.20;;;;;;;10.27;38.07;98765.19;10330834;28;20221;-86
2022/03/31 16:56:12;;;;;;;19.00;15.10;;;;;;;10.62;37.09;98762.81;10366617;28;20607;-82
2022/03/31 17:01:14;;;;;;;21.03;15.53;;;;;;;10.53;36.62;98770.78;10358167;28;20271;-83
2022/03/31 17:06:17;;;;;;;20.10;16.37;;;;;;;10.31;36.85;98777.38;10342539;28;20313;-82
2022/03/31 17:11:19;;;;;;;20.70;16.63;;;;;;;9.55;38.62;98785.13;10347528;28;20275;-82
2022/03/31 17:16:21;;;;;;;21.20;16.17;;;;;;;10.03;37.55;98780.63;10352261;28;20229;-83
2022/03/31 17:21:24;;;;;;;20.07;16.63;;;;;;;9.45;38.13;98782.94;10350474;28;20283;-82
2022/03/31 17:26:26;;;;;;;24.40;16.70;;;;;;;9.67;37.15;98796.25;10337127;28;20233;-83
2022/03/31 17:31:29;;;;;;;20.63;16.10;;;;;;;9.62;37.21;98799.38;10361234;28;20244;-86
2022/03/31 17:36:31;;;;;;;18.00;15.03;;;;;;;9.09;37.28;98807.72;10360355;28;20237;-86
2022/03/31 17:41:33;;;;;;;22.07;15.83;;;;;;;8.83;39.08;98813.28;10365773;28;20579;-83
2022/03/31 17:46:36;;;;;;;21.60;15.93;;;;;;;9.58;37.53;98815.41;10349142;28;20237;-83
2022/03/31 17:51:38;;;;;;;18.03;14.37;;;;;;;9.62;37.36;98824.78;10358416;28;20585;-82
2022/03/31 17:56:40;;;;;;;17.87;13.27;;;;;;;9.43;37.65;98833.31;10352838;28;20683;-86
2022/03/31 18:01:44;;;;;;;15.90;12.30;;;;;;;7.99;40.43;98844.09;10352388;28;20298;-83
2022/03/31 18:06:50;;;;;;;16.27;13.13;;;;;;;7.80;40.12;98861.72;10360775;28;20232;-82
2022/03/31 18:11:52;;;;;;;14.03;11.73;;;;;;;8.18;40.00;98866.63;10362531;28;20228;-82
2022/03/31 18:16:55;;;;;;;13.47;10.90;;;;;;;7.83;40.03;98877.88;10340482;28;20273;-84
2022/03/31 18:21:59;;;;;;;11.50;9.43;;;;;;;7.70;40.13;98891.22;10355246;28;20256;-83
2022/03/31 18:27:02;;;;;;;13.03;9.87;;;;;;;6.52;42.13;98898.44;10364119;28;20229;-84
2022/03/31 18:37:26;;;;;;;11.37;9.37;;;;;;;7.63;39.43;98907.09;10353117;28;20236;-81
2022/03/31 18:42:28;;;;;;;12.33;9.77;;;;;;;8.28;37.31;98906.28;10357653;28;20295;-82
2022/03/31 18:47:30;;;;;;;13.57;9.87;;;;;;;7.17;39.60;98924.38;10347081;28;20240;-81
2022/03/31 18:52:32;;;;;;;11.10;9.53;;;;;;;7.85;38.21;98927.00;10366005;28;20260;-81
2022/03/31 18:57:36;;;;;;;11.70;10.03;;;;;;;7.84;39.68;98936.59;10358543;28;20236;-84
2022/03/31 19:02:38;;;;;;;11.67;9.27;;;;;;;6.23;40.92;98948.44;10352034;28;20264;-83
2022/03/31 19:07:41;;;;;;;12.17;10.07;;;;;;;7.71;38.57;98954.72;10351629;28;20302;-85
2022/03/31 19:12:43;;;;;;;9.90;8.90;;;;;;;7.19;38.78;98964.19;10340227;28;20257;-85
2022/03/31 19:17:46;;;;;;;11.00;8.87;;;;;;;7.37;39.08;98961.03;10360435;28;20727;-85
2022/03/31 19:22:48;;;;;;;10.27;8.70;;;;;;;7.68;38.42;98975.13;10339022;28;20240;-84
2022/03/31 19:27:56;;;;;;;11.83;8.90;;;;;;;8.28;37.36;98961.78;10330912;28;20253;-83
2022/03/31 19:32:58;;;;;;;14.23;10.33;;;;;;;6.99;40.03;98978.44;10347560;28;20232;-86
2022/03/31 19:38:00;;;;;;;10.93;9.10;;;;;;;6.57;41.02;98973.19;10342036;28;20283;-85
2022/03/31 19:43:03;;;;;;;11.13;9.03;;;;;;;6.60;39.93;98983.69;10347953;28;20233;-85
2022/03/31 19:48:06;;;;;;;17.20;11.53;;;;;;;6.99;39.43;99000.91;10343820;28;20283;-82
2022/03/31 19:53:09;;;;;;;12.00;10.30;;;;;;;6.61;41.00;98995.72;10336499;28;20240;-88
2022/03/31 19:58:11;;;;;;;14.60;10.43;;;;;;;7.64;38.14;98995.91;10353768;28;20286;-85
2022/03/31 20:03:14;;;;;;;13.67;11.03;;;;;;;6.91;38.97;98996.28;10353906;28;20241;-85
2022/03/31 20:08:17;;;;;;;14.00;12.13;;;;;;;6.85;40.03;98995.69;10355693;28;20206;-86
2022/03/31 20:13:19;;;;;;;13.47;11.97;;;;;;;7.21;39.40;99004.00;10383115;28;20275;-85
2022/03/31 20:18:21;;;;;;;16.83;12.67;;;;;;;7.80;38.11;98997.59;10329278;28;20319;-84
2022/03/31 20:23:26;;;;;;;13.67;12.20;;;;;;;6.87;39.86;99007.41;10353789;28;20232;-85
2022/03/31 20:28:28;;;;;;;13.33;11.37;;;;;;;5.98;40.51;99012.16;10385313;28;20205;-85
2022/03/31 20:33:31;;;;;;;14.20;12.80;;;;;;;6.19;40.96;99004.47;10372509;28;20549;-82
2022/03/31 20:38:35;;;;;;;13.70;12.27;;;;;;;6.86;38.78;99012.19;10379866;28;20641;-85
2022/03/31 20:43:37;;;;;;;14.13;12.63;;;;;;;6.28;41.42;99013.56;10380182;28;20225;-83
2022/03/31 20:48:42;;;;;;;13.10;11.50;;;;;;;6.67;39.69;99019.59;10372195;28;20656;-84
2022/03/31 20:53:45;;;;;;;12.23;10.87;;;;;;;6.79;39.27;99006.38;10414258;28;20208;-85
2022/03/31 20:58:47;;;;;;;11.70;10.17;;;;;;;7.32;38.22;99021.16;10405004;28;20217;-85
2022/03/31 21:03:49;;;;;;;11.97;10.77;;;;;;;6.96;38.79;99018.50;10398354;28;20205;-83
2022/03/31 21:08:52;;;;;;;13.57;11.27;;;;;;;7.57;38.24;99025.50;10365647;28;20474;-85
2022/03/31 21:13:55;;;;;;;12.40;11.10;;;;;;;7.70;37.63;99019.78;10401796;28;20511;-82
2022/03/31 21:19:00;;;;;;;14.17;12.50;;;;;;;7.25;38.39;99023.75;10404286;28;20556;-85
2022/03/31 21:24:03;;;;;;;12.93;11.63;;;;;;;6.86;39.51;99020.63;10390441;28;20209;-82
2022/03/31 21:29:05;;;;;;;15.23;13.60;;;;;;;7.30;39.17;99026.31;10398462;28;20197;-84
2022/03/31 21:34:08;;;;;;;13.70;12.30;;;;;;;6.95;39.29;99026.13;10400391;28;20590;-83
2022/03/31 21:39:11;;;;;;;12.60;11.40;;;;;;;7.13;38.19;99021.81;10345951;28;20229;-82
2022/03/31 21:44:14;;;;;;;11.90;10.67;;;;;;;6.26;39.55;99032.75;10341024;28;20217;-84
2022/03/31 21:49:16;;;;;;;11.00;9.90;;;;;;;6.77;38.56;99036.81;10361712;28;20255;-84
2022/03/31 21:54:18;;;;;;;12.03;10.83;;;;;;;7.59;37.28;99030.75;10393047;28;20208;-84
2022/03/31 21:59:21;;;;;;;12.60;11.30;;;;;;;6.43;39.54;99037.31;10411507;28;20279;-84
2022/03/31 22:04:23;;;;;;;10.93;9.83;;;;;;;6.81;38.53;99048.97;10338394;28;20267;-84
2022/03/31 22:14:46;;;;;;;11.50;10.37;;;;;;;5.98;39.15;99051.44;10363523;28;20232;-85
2022/03/31 22:19:49;;;;;;;11.27;9.93;;;;;;;6.72;38.62;99050.22;10342151;28;20646;-84
2022/03/31 22:24:53;;;;;;;10.83;9.80;;;;;;;6.74;38.64;99051.56;10377201;28;20700;-85
2022/03/31 22:29:58;;;;;;;10.33;9.23;;;;;;;6.35;39.29;99050.28;10376100;28;20236;-84
2022/03/31 22:35:00;;;;;;;9.37;8.30;;;;;;;5.75;39.44;99051.88;10344328;28;20283;-84
2022/03/31 22:40:03;;;;;;;11.07;8.07;;;;;;;6.90;38.04;99046.03;10359761;28;20295;-83
2022/03/31 22:45:06;;;;;;;8.40;7.60;;;;;;;6.43;38.61;99056.97;10359991;28;20205;-83
2022/03/31 22:50:08;;;;;;;9.67;7.70;;;;;;;6.16;38.86;99064.91;10341253;28;20201;-83
2022/03/31 22:55:11;;;;;;;8.23;7.43;;;;;;;6.64;38.23;99056.81;10370818;28;20497;-84
2022/03/31 23:00:14;;;;;;;9.53;8.53;;;;;;;5.91;38.94;99062.41;10371077;28;20766;-84
2022/03/31 23:05:16;;;;;;;7.90;7.10;;;;;;;5.81;39.78;99072.91;10356051;28;20236;-83
2022/03/31 23:10:18;;;;;;;9.20;7.43;;;;;;;5.94;39.02;99068.13;10402952;28;20205;-84
2022/03/31 23:15:20;;;;;;;7.37;6.43;;;;;;;7.00;37.75;99067.19;10358234;28;20286;-83
2022/03/31 23:20:22;;;;;;;7.93;6.60;;;;;;;6.10;38.86;99057.06;10385991;28;20705;-82
2022/03/31 23:25:25;;;;;;;6.97;6.27;;;;;;;6.01;38.66;99067.56;10376831;28;20529;-83
2022/03/31 23:30:27;;;;;;;7.90;6.13;;;;;;;7.09;37.17;99049.03;10363364;28;20197;-83
2022/03/31 23:35:29;;;;;;;7.97;6.40;;;;;;;6.04;39.18;99067.69;10418113;28;20205;-83
2022/03/31 23:40:33;;;;;;;11.13;7.10;;;;;;;6.45;38.35;99068.66;10391218;28;20224;-83
2022/03/31 23:45:36;;;;;;;7.40;6.57;;;;;;;5.79;39.81;99078.06;10424345;28;20193;-83